Time;durP1;ratioP1;P1;durP2;ratioP2;P2;SDS_P1;SDS_P2;PMS_P1;PMS_P2;Temp;Humidity;BMP_temperature;BMP_pressure;BME280_temperature;BME280_humidity;BME280_pressure;Samples;Min_cycle;Max_cycle;Signal;HPM_P1;HPM_P2
2024/01/05 00:01:38;;;;;;;8.45;2.30;;;7.10;99.90;;;;;;4960168;28;20033;-76
2024/01/05 00:04:04;;;;;;;5.00;1.90;;;7.10;99.90;;;;;;4959790;28;20428;-76
2024/01/05 00:06:29;;;;;;;6.93;2.15;;;7.10;99.90;;;;;;4959280;28;20035;-76
2024/01/05 00:08:55;;;;;;;4.88;1.73;;;7.00;99.90;;;;;;4959753;28;20034;-76
2024/01/05 00:11:21;;;;;;;3.67;1.70;;;7.10;99.90;;;;;;4959270;28;20035;-76
2024/01/05 00:13:47;;;;;;;4.97;1.63;;;7.10;99.90;;;;;;4959792;28;20487;-77
2024/01/05 00:16:21;;;;;;;3.40;1.50;;;7.10;99.90;;;;;;4976897;28;20038;-77
2024/01/05 00:18:47;;;;;;;7.97;2.00;;;7.00;99.90;;;;;;4996637;28;20031;-76
2024/01/05 00:21:26;;;;;;;3.60;1.58;;;6.90;99.90;;;;;;4978412;28;20027;-76
2024/01/05 00:23:53;;;;;;;8.52;1.60;;;6.80;99.90;;;;;;4994949;28;20038;-75
2024/01/05 00:26:19;;;;;;;3.15;1.70;;;6.80;99.90;;;;;;4994630;28;20084;-76
2024/01/05 00:28:46;;;;;;;6.43;1.80;;;6.80;99.90;;;;;;4978691;28;20124;-76
2024/01/05 00:31:14;;;;;;;3.70;2.03;;;6.80;99.90;;;;;;4978326;28;20034;-77
2024/01/05 00:33:40;;;;;;;5.57;1.88;;;6.70;99.90;;;;;;4994909;28;20041;-76
2024/01/05 00:36:07;;;;;;;6.82;1.95;;;6.80;99.90;;;;;;4994762;28;20026;-76
2024/01/05 00:38:32;;;;;;;4.75;1.90;;;6.80;99.90;;;;;;4977867;28;20089;-76
2024/01/05 00:40:59;;;;;;;9.82;2.90;;;6.70;99.90;;;;;;4978609;28;20133;-76
2024/01/05 00:43:25;;;;;;;6.82;2.47;;;6.80;99.90;;;;;;4995464;28;20458;-76
2024/01/05 00:45:51;;;;;;;3.75;1.90;;;6.80;99.90;;;;;;4978595;28;20030;-76
2024/01/05 00:48:16;;;;;;;6.82;2.22;;;6.90;99.90;;;;;;4977782;28;20026;-77
2024/01/05 00:50:42;;;;;;;5.50;2.20;;;6.80;99.90;;;;;;4978359;28;20026;-76
2024/01/05 00:53:08;;;;;;;5.30;1.75;;;6.80;99.90;;;;;;4994944;28;20030;-76
2024/01/05 00:55:34;;;;;;;4.95;2.03;;;6.90;99.90;;;;;;4994538;28;20088;-76
2024/01/05 00:57:59;;;;;;;6.32;1.92;;;6.90;99.90;;;;;;4978070;28;20030;-76
2024/01/05 01:00:25;;;;;;;7.30;2.20;;;6.90;99.90;;;;;;4995075;28;20065;-76
2024/01/05 01:02:52;;;;;;;5.38;1.85;;;6.90;99.90;;;;;;4977994;28;20062;-76
2024/01/05 01:05:17;;;;;;;6.05;2.03;;;6.90;99.90;;;;;;4994900;28;20022;-77
2024/01/05 01:07:43;;;;;;;6.90;2.33;;;6.90;99.90;;;;;;4977861;28;20030;-76
2024/01/05 01:10:09;;;;;;;6.60;2.17;;;6.90;99.90;;;;;;4977871;28;20041;-81
2024/01/05 01:12:35;;;;;;;7.28;1.98;;;6.90;99.90;;;;;;4977644;28;20026;-76
2024/01/05 01:15:00;;;;;;;4.15;1.77;;;6.90;99.90;;;;;;4995515;28;20460;-76
2024/01/05 01:17:26;;;;;;;4.88;1.80;;;6.80;99.90;;;;;;4994858;28;20030;-76
2024/01/05 01:19:52;;;;;;;7.68;2.20;;;6.80;99.90;;;;;;4994911;28;20022;-76
2024/01/05 01:22:17;;;;;;;3.53;1.70;;;6.70;99.90;;;;;;4977065;28;20026;-77
2024/01/05 01:24:45;;;;;;;4.25;1.60;;;6.70;99.90;;;;;;4995100;28;20080;-76
2024/01/05 01:27:11;;;;;;;4.85;1.80;;;6.60;99.90;;;;;;4994748;28;20038;-78
2024/01/05 01:29:36;;;;;;;4.45;1.77;;;6.60;99.90;;;;;;4977573;28;20026;-76
2024/01/05 01:32:02;;;;;;;3.40;2.03;;;6.50;99.90;;;;;;4977664;28;20034;-76
2024/01/05 01:34:28;;;;;;;3.15;1.77;;;6.50;99.90;;;;;;4994338;28;20066;-76
2024/01/05 01:36:53;;;;;;;8.73;2.13;;;6.50;99.90;;;;;;4994322;28;20496;-76
2024/01/05 01:39:19;;;;;;;6.80;1.83;;;6.50;99.90;;;;;;4993895;28;20370;-76
2024/01/05 01:41:44;;;;;;;7.53;2.00;;;6.60;99.90;;;;;;4977461;28;20133;-76
2024/01/05 01:44:10;;;;;;;6.28;2.17;;;6.60;99.90;;;;;;4994662;28;20379;-76
2024/01/05 01:46:36;;;;;;;4.20;1.92;;;6.50;99.90;;;;;;4993165;28;20022;-76
2024/01/05 01:49:04;;;;;;;6.05;2.17;;;6.50;99.90;;;;;;4977405;28;20030;-76
2024/01/05 01:51:31;;;;;;;7.95;2.25;;;6.50;99.90;;;;;;4994291;28;20046;-76
2024/01/05 01:53:58;;;;;;;6.78;1.90;;;6.40;99.90;;;;;;4977154;28;20049;-76
2024/01/05 01:56:24;;;;;;;4.90;1.95;;;6.40;99.90;;;;;;4976658;28;20375;-76
2024/01/05 01:58:50;;;;;;;6.10;1.70;;;6.40;99.90;;;;;;4977230;28;20030;-76
2024/01/05 02:01:16;;;;;;;6.22;2.00;;;6.40;99.90;;;;;;4993805;28;20031;-84
2024/01/05 02:03:42;;;;;;;4.80;2.00;;;6.40;99.90;;;;;;4976742;28;20062;-76
2024/01/05 02:06:08;;;;;;;5.50;1.95;;;6.30;99.90;;;;;;4993018;28;20053;-76
2024/01/05 02:08:34;;;;;;;11.07;2.08;;;6.30;99.90;;;;;;4993948;28;20579;-76
2024/01/05 02:10:59;;;;;;;4.63;2.08;;;6.20;99.90;;;;;;4994364;28;20026;-76
2024/01/05 02:13:25;;;;;;;4.45;2.40;;;6.20;99.90;;;;;;4976054;28;20026;-76
2024/01/05 02:15:50;;;;;;;5.65;2.70;;;6.10;99.90;;;;;;4994036;28;20057;-76
2024/01/05 02:18:16;;;;;;;3.92;1.90;;;6.00;99.90;;;;;;4993847;28;20090;-80
2024/01/05 02:20:46;;;;;;;6.15;2.25;;;6.00;99.90;;;;;;4992965;28;20026;-76
2024/01/05 02:23:28;;;;;;;6.82;2.72;;;6.00;99.90;;;;;;4994145;28;20455;-76
2024/01/05 02:25:55;;;;;;;4.57;1.80;;;5.90;99.90;;;;;;4994061;28;20026;-76
2024/01/05 02:28:21;;;;;;;5.43;2.20;;;5.90;99.90;;;;;;4992238;28;20034;-77
2024/01/05 02:30:46;;;;;;;5.80;2.33;;;5.90;99.90;;;;;;4976293;28;20030;-76
2024/01/05 02:33:12;;;;;;;8.13;2.13;;;5.90;99.90;;;;;;4976117;28;20037;-76
2024/01/05 02:35:38;;;;;;;5.15;2.00;;;5.80;99.90;;;;;;4992049;28;20031;-76
2024/01/05 02:38:04;;;;;;;4.03;1.90;;;5.80;99.90;;;;;;4975990;28;20046;-76
2024/01/05 02:40:30;;;;;;;6.22;1.70;;;5.70;99.90;;;;;;4975701;28;20157;-76
2024/01/05 02:42:55;;;;;;;5.03;2.00;;;5.80;99.90;;;;;;4976290;28;20132;-76
2024/01/05 02:45:21;;;;;;;6.27;2.07;;;5.60;99.90;;;;;;4993068;28;20110;-77
2024/01/05 02:47:53;;;;;;;4.10;2.23;;;5.60;99.90;;;;;;4993783;28;20062;-76
2024/01/05 02:50:20;;;;;;;6.45;2.28;;;5.50;99.90;;;;;;4976085;28;20030;-81
2024/01/05 02:52:46;;;;;;;4.87;1.87;;;5.60;99.90;;;;;;4976256;28;20034;-76
2024/01/05 02:55:12;;;;;;;6.73;2.40;;;5.60;99.90;;;;;;4976243;28;20030;-76
2024/01/05 02:57:39;;;;;;;4.80;1.67;;;5.60;99.90;;;;;;4975710;28;20088;-76
2024/01/05 03:00:05;;;;;;;6.50;1.97;;;5.60;99.90;;;;;;4976296;28;20034;-76
2024/01/05 03:02:31;;;;;;;8.90;2.27;;;5.70;99.90;;;;;;4975656;28;20022;-76
2024/01/05 03:04:57;;;;;;;7.10;2.10;;;5.70;99.90;;;;;;4993527;28;20033;-76
2024/01/05 03:07:23;;;;;;;9.60;2.00;;;5.70;99.90;;;;;;4975123;28;20129;-77
2024/01/05 03:09:49;;;;;;;4.70;1.70;;;5.80;99.90;;;;;;4975754;28;20097;-76
2024/01/05 03:12:15;;;;;;;4.20;1.77;;;5.80;99.90;;;;;;4993100;28;20406;-76
2024/01/05 03:14:41;;;;;;;7.37;2.17;;;5.80;99.90;;;;;;4992991;28;20038;-76
2024/01/05 03:17:07;;;;;;;4.43;1.47;;;5.80;99.90;;;;;;4978982;28;20081;-75
2024/01/05 03:19:32;;;;;;;3.57;2.07;;;5.80;99.90;;;;;;4995808;28;20033;-76
2024/01/05 03:21:58;;;;;;;4.50;1.80;;;5.80;99.90;;;;;;4997622;28;20030;-76
2024/01/05 03:24:24;;;;;;;6.37;1.90;;;5.80;99.90;;;;;;4996797;28;20365;-76
2024/01/05 03:26:50;;;;;;;5.68;1.40;;;5.90;99.90;;;;;;4979981;28;20074;-76
2024/01/05 03:29:15;;;;;;;6.60;1.73;;;6.00;99.90;;;;;;4996017;28;20049;-76
2024/01/05 03:31:45;;;;;;;4.30;1.60;;;6.00;99.90;;;;;;4979304;28;20557;-76
2024/01/05 03:34:14;;;;;;;4.67;1.80;;;5.90;99.90;;;;;;4997228;28;20467;-76
2024/01/05 03:36:40;;;;;;;5.53;2.27;;;6.00;99.90;;;;;;4978974;28;20577;-76
2024/01/05 03:39:07;;;;;;;8.23;1.97;;;6.00;99.90;;;;;;4997247;28;20037;-76
2024/01/05 03:41:33;;;;;;;5.57;1.70;;;6.00;99.90;;;;;;4979197;28;20022;-76
2024/01/05 03:43:59;;;;;;;4.57;1.60;;;6.10;99.90;;;;;;4979315;28;20534;-76
2024/01/05 03:46:25;;;;;;;4.50;1.43;;;6.00;99.90;;;;;;4996571;28;20022;-76
2024/01/05 03:48:51;;;;;;;5.67;1.60;;;6.10;99.90;;;;;;4979341;28;20030;-76
2024/01/05 03:51:16;;;;;;;8.23;2.00;;;6.10;99.90;;;;;;4996606;28;20397;-76
2024/01/05 03:53:42;;;;;;;9.33;2.50;;;6.10;99.90;;;;;;4995928;28;20281;-76
2024/01/05 03:56:08;;;;;;;4.93;2.07;;;6.10;99.90;;;;;;4979397;28;20034;-76
2024/01/05 03:58:34;;;;;;;4.45;1.67;;;6.00;99.90;;;;;;4978642;28;20030;-77
2024/01/05 04:01:03;;;;;;;5.80;1.63;;;6.00;99.90;;;;;;4979056;28;20117;-76
2024/01/05 04:03:29;;;;;;;3.70;1.30;;;6.00;99.90;;;;;;4978325;28;20042;-76
2024/01/05 04:05:55;;;;;;;5.67;1.60;;;6.10;99.90;;;;;;4978938;28;20030;-76
2024/01/05 04:08:22;;;;;;;5.97;1.92;;;6.10;99.90;;;;;;4995791;28;20022;-86
2024/01/05 04:10:47;;;;;;;5.47;1.70;;;6.10;99.90;;;;;;4978759;28;20026;-76
2024/01/05 04:13:13;;;;;;;4.13;1.70;;;6.20;99.90;;;;;;4979104;28;20121;-76
2024/01/05 04:15:39;;;;;;;7.50;1.80;;;6.20;99.90;;;;;;4994865;28;20027;-76
2024/01/05 04:18:05;;;;;;;5.37;1.47;;;6.30;99.90;;;;;;4978913;28;20030;-76
2024/01/05 04:20:31;;;;;;;4.40;1.70;;;6.30;99.90;;;;;;4994671;28;20049;-77
2024/01/05 04:22:58;;;;;;;5.07;1.92;;;6.30;99.90;;;;;;4978969;28;20038;-76
2024/01/05 04:25:24;;;;;;;3.77;1.47;;;6.40;99.90;;;;;;4978543;28;20037;-81
2024/01/05 04:27:49;;;;;;;4.30;1.50;;;6.40;99.90;;;;;;4993651;28;20030;-76
2024/01/05 04:30:15;;;;;;;3.95;1.50;;;6.50;99.90;;;;;;4994985;28;20034;-76
2024/01/05 04:32:43;;;;;;;3.70;1.70;;;6.50;99.90;;;;;;4994362;28;20599;-75
2024/01/05 04:35:09;;;;;;;4.38;1.75;;;6.60;99.90;;;;;;4978658;28;20026;-76
2024/01/05 04:37:35;;;;;;;5.40;1.67;;;6.60;99.90;;;;;;4995132;28;20052;-76
2024/01/05 04:40:00;;;;;;;3.88;1.30;;;6.60;99.90;;;;;;4978114;28;20027;-76
2024/01/05 04:42:26;;;;;;;4.07;1.30;;;6.70;99.90;;;;;;4977967;28;20027;-77
2024/01/05 04:44:52;;;;;;;5.45;1.42;;;6.60;99.90;;;;;;4995807;28;20038;-76
2024/01/05 04:47:18;;;;;;;6.18;1.60;;;6.70;99.90;;;;;;4978450;28;20030;-76
2024/01/05 04:49:44;;;;;;;2.85;1.30;;;6.70;99.90;;;;;;4977882;28;20182;-76
2024/01/05 04:52:10;;;;;;;3.17;1.67;;;6.70;99.90;;;;;;4994537;28;20502;-76
2024/01/05 04:54:36;;;;;;;7.78;1.73;;;6.70;99.90;;;;;;4995229;28;20030;-76
2024/01/05 04:57:02;;;;;;;3.78;1.40;;;6.70;99.90;;;;;;4995451;28;20046;-76
2024/01/05 04:59:27;;;;;;;3.30;1.20;;;6.80;99.90;;;;;;4994820;28;20130;-76
2024/01/05 05:01:53;;;;;;;5.05;1.25;;;6.80;99.90;;;;;;4993893;28;20031;-76
2024/01/05 05:04:18;;;;;;;5.97;1.40;;;6.80;99.90;;;;;;4977812;28;20035;-76
2024/01/05 05:06:44;;;;;;;4.20;1.33;;;6.90;99.90;;;;;;4993535;28;20030;-76
2024/01/05 05:09:10;;;;;;;4.10;1.55;;;6.90;99.90;;;;;;4978515;28;20030;-76
2024/01/05 05:11:39;;;;;;;2.65;1.02;;;6.90;99.90;;;;;;4975609;28;20027;-76
2024/01/05 05:14:05;;;;;;;5.25;1.30;;;7.00;99.90;;;;;;4958520;28;20035;-76
2024/01/05 05:16:30;;;;;;;6.88;1.52;;;7.00;99.90;;;;;;4957877;28;20537;-76
2024/01/05 05:18:56;;;;;;;7.05;1.38;;;7.00;99.90;;;;;;4958450;28;20023;-76
2024/01/05 05:21:23;;;;;;;6.05;1.85;;;7.00;99.90;;;;;;4975809;28;20476;-76
2024/01/05 05:23:48;;;;;;;6.93;1.40;;;7.00;99.90;;;;;;4975231;28;20100;-76
2024/01/05 05:26:14;;;;;;;5.53;1.58;;;7.10;99.90;;;;;;4975460;28;20106;-76
2024/01/05 05:28:39;;;;;;;5.70;1.40;;;7.10;99.90;;;;;;4973334;28;20042;-76
2024/01/05 05:31:05;;;;;;;2.45;1.23;;;7.10;99.90;;;;;;4958230;28;20082;-76
2024/01/05 05:33:31;;;;;;;3.55;1.30;;;7.10;99.90;;;;;;4957251;28;20046;-76
2024/01/05 05:35:56;;;;;;;4.97;1.33;;;7.20;99.90;;;;;;4973883;28;20030;-76
2024/01/05 05:38:22;;;;;;;3.42;1.10;;;7.20;99.90;;;;;;4957414;28;20047;-76
2024/01/05 05:40:47;;;;;;;4.40;1.35;;;7.20;99.90;;;;;;4957640;28;20457;-76
2024/01/05 05:43:13;;;;;;;6.40;1.13;;;7.20;99.90;;;;;;4975219;28;20035;-76
2024/01/05 05:45:39;;;;;;;3.70;1.20;;;7.20;99.90;;;;;;4974886;28;20031;-76
2024/01/05 05:48:05;;;;;;;2.58;1.10;;;7.20;99.90;;;;;;4974226;28;20038;-76
2024/01/05 05:50:30;;;;;;;4.55;1.42;;;7.20;99.90;;;;;;4974912;28;20086;-77
2024/01/05 05:52:56;;;;;;;7.20;1.95;;;7.20;99.90;;;;;;4974860;28;20424;-76
2024/01/05 05:55:22;;;;;;;6.88;1.52;;;7.10;99.90;;;;;;4973977;28;20118;-76
2024/01/05 05:57:47;;;;;;;3.75;1.42;;;7.20;99.90;;;;;;4957262;28;20121;-76
2024/01/05 06:00:13;;;;;;;3.45;1.55;;;7.20;99.90;;;;;;4957820;28;20086;-76
2024/01/05 06:02:39;;;;;;;5.97;1.70;;;7.20;99.90;;;;;;4957169;28;20033;-77
2024/01/05 06:05:05;;;;;;;2.60;1.20;;;7.20;99.90;;;;;;4973689;28;20078;-76
2024/01/05 06:07:31;;;;;;;4.18;1.48;;;7.30;99.90;;;;;;4956875;28;20034;-80
2024/01/05 06:09:58;;;;;;;6.63;1.52;;;7.30;99.90;;;;;;4974566;28;20101;-76
2024/01/05 06:12:24;;;;;;;2.30;1.15;;;7.30;99.90;;;;;;4973389;28;20033;-77
2024/01/05 06:14:49;;;;;;;5.03;1.75;;;7.30;99.90;;;;;;4972695;28;20034;-76
2024/01/05 06:17:15;;;;;;;5.80;1.40;;;7.30;99.90;;;;;;4957230;28;20118;-76
2024/01/05 06:19:40;;;;;;;4.63;1.35;;;7.30;99.90;;;;;;4956846;28;20038;-76
2024/01/05 06:22:06;;;;;;;4.93;1.73;;;7.40;99.90;;;;;;4973355;28;20423;-76
2024/01/05 06:24:32;;;;;;;7.85;1.52;;;7.30;99.90;;;;;;4973827;28;20034;-77
2024/01/05 06:26:57;;;;;;;4.57;1.60;;;7.40;99.90;;;;;;4973256;28;20023;-76
2024/01/05 06:29:23;;;;;;;2.63;1.30;;;7.40;99.90;;;;;;4956675;28;20063;-76
2024/01/05 06:31:48;;;;;;;4.05;1.30;;;7.30;99.90;;;;;;4974022;28;20027;-76
2024/01/05 06:34:14;;;;;;;6.43;1.42;;;7.30;99.90;;;;;;4956816;28;20030;-76
2024/01/05 06:36:40;;;;;;;5.28;1.42;;;7.30;99.90;;;;;;4972556;28;20038;-76
2024/01/05 06:39:05;;;;;;;5.40;1.40;;;7.40;99.90;;;;;;4974336;28;20030;-76
2024/01/05 06:41:31;;;;;;;6.88;1.90;;;7.30;99.90;;;;;;4956741;28;20035;-83
2024/01/05 06:43:57;;;;;;;3.30;1.33;;;7.30;99.90;;;;;;4973908;28;20038;-76
2024/01/05 06:46:23;;;;;;;4.07;1.55;;;7.30;99.90;;;;;;4973045;28;20114;-76
2024/01/05 06:48:49;;;;;;;5.80;1.40;;;7.30;99.90;;;;;;4973976;28;20033;-76
2024/01/05 06:51:15;;;;;;;4.13;1.80;;;7.30;99.90;;;;;;4973904;28;20035;-76
2024/01/05 06:53:40;;;;;;;9.52;2.70;;;7.30;99.90;;;;;;4956246;28;20030;-76
2024/01/05 06:56:06;;;;;;;3.47;1.45;;;7.40;99.90;;;;;;4974567;28;20046;-76
2024/01/05 06:58:34;;;;;;;5.45;1.60;;;7.40;99.90;;;;;;4973728;28;20035;-80
2024/01/05 07:01:01;;;;;;;4.85;1.50;;;7.40;99.90;;;;;;4956687;28;20026;-75
2024/01/05 07:03:26;;;;;;;4.35;1.30;;;7.40;99.90;;;;;;4973816;28;20034;-76
2024/01/05 07:05:52;;;;;;;5.75;1.50;;;7.40;99.90;;;;;;4955695;28;20023;-76
2024/01/05 07:08:18;;;;;;;5.32;1.70;;;7.30;99.90;;;;;;4956667;28;20067;-76
2024/01/05 07:10:43;;;;;;;5.80;1.70;;;7.30;99.90;;;;;;4973173;28;20040;-76
2024/01/05 07:13:09;;;;;;;5.03;1.80;;;7.30;99.90;;;;;;4972698;28;20220;-76
2024/01/05 07:15:35;;;;;;;8.52;1.77;;;7.30;99.90;;;;;;4955915;28;20027;-84
2024/01/05 07:18:00;;;;;;;5.22;1.58;;;7.30;99.90;;;;;;4956604;28;20029;-76
2024/01/05 07:20:26;;;;;;;4.25;1.65;;;7.30;99.90;;;;;;4973684;28;20054;-76
2024/01/05 07:22:51;;;;;;;3.10;1.35;;;7.30;99.90;;;;;;4955681;28;20030;-76
2024/01/05 07:25:17;;;;;;;2.90;1.45;;;7.30;99.90;;;;;;4973912;28;20030;-76
2024/01/05 07:27:43;;;;;;;3.33;1.65;;;7.30;99.90;;;;;;4973407;28;20085;-76
2024/01/05 07:30:09;;;;;;;4.28;1.67;;;7.30;99.90;;;;;;4973859;28;20123;-76
2024/01/05 07:32:34;;;;;;;3.67;1.45;;;7.30;99.90;;;;;;4973305;28;20361;-80
2024/01/05 07:35:00;;;;;;;3.30;1.40;;;7.30;99.90;;;;;;4973734;28;20038;-76
2024/01/05 07:37:25;;;;;;;5.80;1.40;;;7.30;99.90;;;;;;4972380;28;20539;-76
2024/01/05 07:39:51;;;;;;;2.53;1.27;;;7.30;99.90;;;;;;4956164;28;20027;-76
2024/01/05 07:42:17;;;;;;;2.90;1.20;;;7.30;99.90;;;;;;4956407;28;20031;-76
2024/01/05 07:44:42;;;;;;;4.25;1.10;;;7.30;99.90;;;;;;4973274;28;20046;-76
2024/01/05 07:47:10;;;;;;;5.35;1.45;;;7.30;99.90;;;;;;4973471;28;20027;-76
2024/01/05 07:49:36;;;;;;;4.93;1.30;;;7.40;99.90;;;;;;4971724;28;20026;-83
2024/01/05 07:52:02;;;;;;;3.97;1.45;;;7.40;99.90;;;;;;4973427;28;20349;-75
2024/01/05 07:54:28;;;;;;;6.22;1.45;;;7.40;99.90;;;;;;4956313;28;20038;-76
2024/01/05 07:56:53;;;;;;;3.22;1.27;;;7.40;99.90;;;;;;4971675;28;20468;-76
2024/01/05 07:59:19;;;;;;;2.88;1.23;;;7.40;99.90;;;;;;4955908;28;20140;-76
2024/01/05 08:01:44;;;;;;;3.08;1.58;;;7.50;99.90;;;;;;4972115;28;20042;-77
2024/01/05 08:04:10;;;;;;;5.40;1.50;;;7.50;99.90;;;;;;4976978;28;20043;-76
2024/01/05 08:06:36;;;;;;;3.60;1.70;;;7.50;99.90;;;;;;4975259;28;20431;-77
2024/01/05 08:09:02;;;;;;;5.57;1.98;;;7.50;99.90;;;;;;4959313;28;20031;-77
2024/01/05 08:11:27;;;;;;;4.13;1.40;;;7.50;99.90;;;;;;4975438;28;20038;-77
2024/01/05 08:13:53;;;;;;;5.20;1.45;;;7.50;99.90;;;;;;4976134;28;20027;-76
2024/01/05 08:16:18;;;;;;;5.07;1.40;;;7.60;99.90;;;;;;4976699;28;20043;-77
2024/01/05 08:18:45;;;;;;;2.85;1.08;;;7.60;99.90;;;;;;4976356;28;20102;-76
2024/01/05 08:21:11;;;;;;;4.50;1.60;;;7.50;99.90;;;;;;4958991;28;20023;-77
2024/01/05 08:23:36;;;;;;;6.60;1.30;;;7.60;99.90;;;;;;4976363;28;20035;-83
2024/01/05 08:26:05;;;;;;;3.67;1.20;;;7.60;99.90;;;;;;4976476;28;20026;-77
2024/01/05 08:28:31;;;;;;;4.55;1.38;;;7.70;99.90;;;;;;4959061;28;20038;-77
2024/01/05 08:30:57;;;;;;;4.20;1.35;;;7.70;99.90;;;;;;4975764;28;20035;-77
2024/01/05 08:33:22;;;;;;;5.03;1.50;;;7.70;99.90;;;;;;4959061;28;20030;-77
2024/01/05 08:35:48;;;;;;;3.00;1.25;;;7.80;99.90;;;;;;4974529;28;20521;-77
2024/01/05 08:38:17;;;;;;;4.85;1.33;;;7.80;99.90;;;;;;4959070;28;20393;-77
2024/01/05 08:40:42;;;;;;;4.53;1.60;;;7.80;99.90;;;;;;4976198;28;20162;-77
2024/01/05 08:43:10;;;;;;;4.47;1.25;;;7.80;99.90;;;;;;4975283;28;20117;-77
2024/01/05 08:45:35;;;;;;;2.20;1.08;;;7.80;99.90;;;;;;4976359;28;20114;-77
2024/01/05 08:48:01;;;;;;;5.00;1.55;;;7.80;99.90;;;;;;4975848;28;20154;-77
2024/01/05 08:50:27;;;;;;;3.28;1.30;;;7.80;99.90;;;;;;4976180;28;20376;-77
2024/01/05 08:52:52;;;;;;;1.98;1.20;;;7.90;99.90;;;;;;4958231;28;20105;-77
2024/01/05 08:55:18;;;;;;;3.13;1.38;;;7.90;99.90;;;;;;4958572;28;20380;-78
2024/01/05 08:57:44;;;;;;;2.50;1.38;;;7.90;99.90;;;;;;4975749;28;20042;-77
2024/01/05 09:00:10;;;;;;;5.90;1.40;;;7.90;99.90;;;;;;4959166;28;20034;-78
2024/01/05 09:02:36;;;;;;;4.10;1.15;;;8.00;99.90;;;;;;4958938;28;20035;-78
2024/01/05 09:05:04;;;;;;;4.28;1.30;;;8.00;99.90;;;;;;4974576;28;20495;-78
2024/01/05 09:07:30;;;;;;;3.20;1.20;;;8.00;99.90;;;;;;4976181;28;20027;-78
2024/01/05 09:09:56;;;;;;;4.70;1.17;;;8.00;99.90;;;;;;4958382;28;20468;-78
2024/01/05 09:12:22;;;;;;;8.38;1.83;;;8.10;99.90;;;;;;4958948;28;20034;-75
2024/01/05 09:14:47;;;;;;;4.38;1.40;;;8.00;99.90;;;;;;4957649;28;20388;-75
2024/01/05 09:17:13;;;;;;;4.15;1.52;;;8.10;99.90;;;;;;4974519;28;20465;-78
2024/01/05 09:19:38;;;;;;;3.22;1.02;;;8.10;99.90;;;;;;4958264;28;20110;-82
2024/01/05 09:22:06;;;;;;;7.00;1.65;;;8.20;99.90;;;;;;4975572;28;20456;-78
2024/01/05 09:24:32;;;;;;;2.72;1.10;;;8.20;99.90;;;;;;4958276;28;20085;-78
2024/01/05 09:26:57;;;;;;;4.65;1.23;;;8.30;99.90;;;;;;4975178;28;20664;-77
2024/01/05 09:29:23;;;;;;;4.00;1.27;;;8.30;99.90;;;;;;4974396;28;20034;-78
2024/01/05 09:31:50;;;;;;;3.60;1.40;;;8.40;99.90;;;;;;4957928;28;20023;-79
2024/01/05 09:34:17;;;;;;;5.68;1.38;;;8.50;99.90;;;;;;4975635;28;20049;-78
2024/01/05 09:36:42;;;;;;;3.65;1.30;;;8.60;99.90;;;;;;4957473;28;20523;-82
2024/01/05 09:39:11;;;;;;;2.88;1.20;;;8.70;99.90;;;;;;4958420;28;20023;-77
2024/01/05 09:41:37;;;;;;;7.45;1.55;;;8.70;99.90;;;;;;4958072;28;20035;-78
2024/01/05 09:44:03;;;;;;;5.20;1.30;;;8.70;99.90;;;;;;4974830;28;20042;-78
2024/01/05 09:46:29;;;;;;;2.45;1.30;;;8.80;99.90;;;;;;4974864;28;20460;-78
2024/01/05 09:49:03;;;;;;;3.03;1.20;;;8.80;99.90;;;;;;4957663;28;20026;-78
2024/01/05 09:51:32;;;;;;;4.20;1.45;;;8.80;99.90;;;;;;4973906;28;20368;-78
2024/01/05 09:53:58;;;;;;;3.67;1.40;;;8.90;99.90;;;;;;4974611;28;20026;-78
2024/01/05 09:56:25;;;;;;;4.30;1.60;;;8.90;99.90;;;;;;4975035;28;20031;-78
2024/01/05 09:58:52;;;;;;;3.67;1.38;;;8.90;99.90;;;;;;4957417;28;20053;-78
2024/01/05 10:01:25;;;;;;;2.67;1.38;;;8.90;99.90;;;;;;4957911;28;20078;-78
2024/01/05 10:04:09;;;;;;;3.15;1.27;;;8.90;99.90;;;;;;4957296;28;20035;-78
2024/01/05 10:06:35;;;;;;;1.55;1.23;;;8.90;99.90;;;;;;4957663;28;20031;-78
2024/01/05 10:09:01;;;;;;;4.43;1.52;;;9.00;99.90;;;;;;4956915;28;20031;-78
2024/01/05 10:11:31;;;;;;;4.65;1.30;;;9.00;99.90;;;;;;4957623;28;20034;-78
2024/01/05 10:14:02;;;;;;;3.58;1.30;;;9.00;99.90;;;;;;4957258;28;20031;-78
2024/01/05 10:16:39;;;;;;;3.55;1.30;;;9.10;99.90;;;;;;4957545;28;20354;-78
2024/01/05 10:19:18;;;;;;;7.38;1.75;;;9.00;99.90;;;;;;4957121;28;20559;-78
2024/01/05 10:21:45;;;;;;;3.65;1.48;;;9.00;99.90;;;;;;4957019;28;20113;-78
2024/01/05 10:24:14;;;;;;;4.60;1.10;;;9.10;99.90;;;;;;4957513;28;20341;-78
2024/01/05 10:26:41;;;;;;;5.57;1.30;;;9.20;99.90;;;;;;4973660;28;20030;-77
2024/01/05 10:29:15;;;;;;;3.28;1.23;;;9.20;99.90;;;;;;4956839;28;20026;-78
2024/01/05 10:31:41;;;;;;;3.33;1.30;;;9.30;99.90;;;;;;4957209;28;20096;-77
2024/01/05 10:34:08;;;;;;;4.70;1.20;;;9.40;99.90;;;;;;4956805;28;20030;-76
2024/01/05 10:36:34;;;;;;;4.43;1.40;;;9.40;99.90;;;;;;4956900;28;20023;-78
2024/01/05 10:39:00;;;;;;;3.88;1.10;;;9.50;99.90;;;;;;4956793;28;20080;-78
2024/01/05 10:41:27;;;;;;;3.55;1.38;;;9.50;99.90;;;;;;4974493;28;20114;-77
2024/01/05 10:43:53;;;;;;;2.90;1.00;;;9.60;99.90;;;;;;4956504;28;20038;-78
2024/01/05 10:46:20;;;;;;;3.70;1.00;;;9.70;99.90;;;;;;4957189;28;20473;-78
2024/01/05 10:48:47;;;;;;;3.55;1.05;;;9.70;99.90;;;;;;4956648;28;20035;-79
2024/01/05 10:51:15;;;;;;;4.90;1.40;;;9.70;99.90;;;;;;4956969;28;20541;-78
2024/01/05 10:53:44;;;;;;;3.65;1.48;;;9.80;99.90;;;;;;4956621;28;20038;-78
2024/01/05 10:56:09;;;;;;;3.08;1.40;;;9.80;99.90;;;;;;4956834;28;20031;-78
2024/01/05 10:58:36;;;;;;;3.30;1.10;;;9.80;99.90;;;;;;4956676;28;20037;-78
2024/01/05 11:01:02;;;;;;;5.85;1.10;;;9.80;99.90;;;;;;4956222;28;20468;-77
2024/01/05 11:03:39;;;;;;;1.35;0.80;;;9.80;99.90;;;;;;4956682;28;20488;-78
2024/01/05 11:06:08;;;;;;;3.22;1.17;;;9.80;99.90;;;;;;4956169;28;20097;-77
2024/01/05 11:08:52;;;;;;;3.08;1.15;;;9.80;99.90;;;;;;4956744;28;20031;-78
2024/01/05 11:11:33;;;;;;;2.67;1.02;;;9.70;99.90;;;;;;4956669;28;20090;-77
2024/01/05 11:14:27;;;;;;;4.73;1.00;;;9.70;99.90;;;;;;4956306;28;20416;-77
2024/01/05 11:17:11;;;;;;;2.72;1.17;;;9.70;99.90;;;;;;4956395;28;20041;-78
2024/01/05 11:20:06;;;;;;;3.92;1.00;;;9.80;99.90;;;;;;4956593;28;20106;-78
2024/01/05 11:22:37;;;;;;;2.50;0.82;;;9.80;99.90;;;;;;4924175;28;20392;-78
2024/01/05 11:25:04;;;;;;;2.13;0.90;;;9.90;99.90;;;;;;4973277;28;20110;-77
2024/01/05 11:27:34;;;;;;;1.65;0.80;;;9.90;99.90;;;;;;4956707;28;20022;-75
2024/01/05 11:30:00;;;;;;;3.40;1.10;;;9.90;99.90;;;;;;4973265;28;20432;-78
2024/01/05 11:32:44;;;;;;;4.75;1.15;;;10.00;99.90;;;;;;4956343;28;20472;-78
2024/01/05 11:35:19;;;;;;;6.20;1.60;;;10.00;99.90;;;;;;4973355;28;20027;-78
2024/01/05 11:37:46;;;;;;;3.13;1.13;;;10.00;99.90;;;;;;4955023;28;20077;-78
2024/01/05 11:40:32;;;;;;;1.98;0.98;;;10.10;99.90;;;;;;4957096;29;20093;-78
2024/01/05 11:42:59;;;;;;;4.05;1.10;;;10.10;99.90;;;;;;4956225;29;20035;-78
2024/01/05 11:45:43;;;;;;;2.58;0.90;;;10.10;99.90;;;;;;4958420;29;20162;-77
2024/01/05 11:48:09;;;;;;;3.65;0.90;;;10.20;99.90;;;;;;4958313;29;20553;-77
2024/01/05 11:50:36;;;;;;;3.72;0.93;;;10.20;99.90;;;;;;4957013;29;20023;-77
2024/01/05 11:53:14;;;;;;;2.88;0.73;;;10.20;99.90;;;;;;4956600;29;20023;-78
2024/01/05 11:55:49;;;;;;;4.28;0.90;;;10.20;99.90;;;;;;4958189;29;20027;-77
2024/01/05 11:58:18;;;;;;;3.83;1.00;;;10.20;99.90;;;;;;4957769;29;20070;-78
2024/01/05 12:00:46;;;;;;;2.95;0.82;;;10.30;99.90;;;;;;4957922;29;20027;-77
2024/01/05 12:03:13;;;;;;;4.13;1.08;;;10.30;99.90;;;;;;4956323;28;20036;-78
2024/01/05 12:05:38;;;;;;;2.53;0.77;;;10.30;99.90;;;;;;4956411;29;20034;-78
2024/01/05 12:08:14;;;;;;;2.15;0.80;;;10.40;99.90;;;;;;4956485;29;20027;-78
2024/01/05 12:10:40;;;;;;;3.33;0.77;;;10.40;99.90;;;;;;4956782;29;20046;-77
2024/01/05 12:13:06;;;;;;;1.42;0.82;;;10.40;99.90;;;;;;4956468;29;20035;-78
2024/01/05 12:15:33;;;;;;;4.40;0.93;;;10.40;99.90;;;;;;4957937;29;20503;-78
2024/01/05 12:18:09;;;;;;;2.30;0.90;;;10.40;99.90;;;;;;4956304;28;20033;-78
2024/01/05 12:20:35;;;;;;;3.83;1.00;;;10.40;99.90;;;;;;4957909;29;20487;-78
2024/01/05 12:23:01;;;;;;;4.82;1.00;;;10.30;99.90;;;;;;4956219;28;20023;-78
2024/01/05 12:25:27;;;;;;;3.97;1.13;;;10.40;99.90;;;;;;4957785;29;20059;-77
2024/01/05 12:27:53;;;;;;;4.00;1.27;;;10.40;99.90;;;;;;4956018;29;20355;-78
2024/01/05 12:30:21;;;;;;;4.28;1.27;;;10.40;99.90;;;;;;4956482;29;20031;-77
2024/01/05 12:32:47;;;;;;;1.88;0.88;;;10.40;99.90;;;;;;4956561;29;20071;-77
2024/01/05 12:35:13;;;;;;;3.72;1.35;;;10.40;99.90;;;;;;4955947;29;20031;-79
2024/01/05 12:37:52;;;;;;;2.28;1.15;;;10.40;99.90;;;;;;4956526;29;20078;-79
2024/01/05 12:40:25;;;;;;;2.38;0.77;;;10.30;99.90;;;;;;4956808;29;20034;-78
2024/01/05 12:42:55;;;;;;;3.70;0.88;;;10.30;99.90;;;;;;4956995;29;20128;-80
2024/01/05 12:45:24;;;;;;;3.15;0.90;;;10.30;99.90;;;;;;4956164;29;20039;-81
2024/01/05 12:47:50;;;;;;;2.28;0.90;;;10.30;99.90;;;;;;4956189;28;20380;-77
2024/01/05 12:50:42;;;;;;;3.28;0.90;;;10.30;99.90;;;;;;4955578;29;20417;-77
2024/01/05 12:53:19;;;;;;;5.72;0.90;;;10.40;99.90;;;;;;4954620;29;20039;-77
2024/01/05 12:55:45;;;;;;;3.83;1.08;;;10.40;99.90;;;;;;4955937;29;20127;-77